createdAt,value
2022-12-26T00:00:25.060Z,36.33
2022-12-26T00:02:51.888Z,32.70
2022-12-26T00:05:18.632Z,35.50
2022-12-26T00:07:45.886Z,36.28
2022-12-26T00:10:12.717Z,36.53
2022-12-26T00:12:39.353Z,35.67
2022-12-26T00:15:06.286Z,38.63
2022-12-26T00:17:32.993Z,38.85
2022-12-26T00:19:59.704Z,33.95
2022-12-26T00:22:26.472Z,35.97
2022-12-26T00:24:53.112Z,46.17
2022-12-26T00:27:19.817Z,40.05
2022-12-26T00:29:47.944Z,38.75
2022-12-26T00:32:14.700Z,37.50
2022-12-26T00:34:41.433Z,43.10
2022-12-26T00:37:08.233Z,42.15
2022-12-26T00:39:34.875Z,45.45
2022-12-26T00:42:01.618Z,41.13
2022-12-26T00:44:28.273Z,46.50
2022-12-26T00:46:55.197Z,40.85
2022-12-26T00:49:21.915Z,47.70
2022-12-26T00:51:48.579Z,39.10
2022-12-26T00:54:15.258Z,52.88
2022-12-26T00:56:41.908Z,47.80
2022-12-26T00:59:08.572Z,50.78
2022-12-26T01:01:35.365Z,45.38
2022-12-26T01:04:02.279Z,47.95
2022-12-26T01:06:28.952Z,48.30
2022-12-26T01:08:55.665Z,52.65
2022-12-26T01:11:41.020Z,51.22
2022-12-26T01:14:15.947Z,46.65
2022-12-26T01:16:44.182Z,45.58
2022-12-26T01:19:12.163Z,40.05
2022-12-26T01:21:39.285Z,43.10
2022-12-26T01:24:06.587Z,41.60
2022-12-26T01:26:33.246Z,35.22
2022-12-26T01:28:59.898Z,40.08
2022-12-26T01:31:26.692Z,42.53
2022-12-26T01:33:53.453Z,38.53
2022-12-26T01:36:20.182Z,38.58
2022-12-26T01:38:46.819Z,34.60
2022-12-26T01:41:22.520Z,45.25
2022-12-26T01:44:04.599Z,37.35
2022-12-26T01:46:40.006Z,36.58
2022-12-26T01:49:15.864Z,40.28
2022-12-26T01:51:46.289Z,33.78
2022-12-26T01:54:41.135Z,33.53
2022-12-26T01:57:02.623Z,30.63
2022-12-26T01:59:31.154Z,25.77
2022-12-26T02:01:59.055Z,26.05
2022-12-26T02:04:48.493Z,27.88
2022-12-26T02:07:15.177Z,28.40
2022-12-26T02:09:42.092Z,30.67
2022-12-26T02:12:35.550Z,27.60
2022-12-26T02:15:06.834Z,26.65
2022-12-26T02:17:33.517Z,24.98
2022-12-26T02:20:10.328Z,28.13
2022-12-26T02:23:04.967Z,26.38
2022-12-26T02:25:31.624Z,24.40
2022-12-26T02:28:46.637Z,26.58
2022-12-26T02:31:20.839Z,25.20
2022-12-26T02:34:10.315Z,27.35
2022-12-26T02:36:55.752Z,25.75
2022-12-26T02:39:45.744Z,25.35
2022-12-26T02:42:19.066Z,27.20
2022-12-26T02:45:11.910Z,27.30
2022-12-26T02:47:50.428Z,30.55
2022-12-26T02:51:16.757Z,28.83
2022-12-26T02:54:31.565Z,79.15
2022-12-26T02:57:22.781Z,42.30
2022-12-26T03:00:21.916Z,46.10
2022-12-26T03:03:41.242Z,47.38
2022-12-26T03:06:34.992Z,49.17
2022-12-26T03:09:55.654Z,34.45
2022-12-26T03:12:51.201Z,40.72
2022-12-26T03:15:19.522Z,36.30
2022-12-26T03:18:01.016Z,35.65
2022-12-26T03:20:31.941Z,35.30
2022-12-26T03:23:10.476Z,33.85
2022-12-26T03:26:03.647Z,35.35
2022-12-26T03:28:30.486Z,39.65
2022-12-26T03:31:00.306Z,35.28
2022-12-26T03:33:54.376Z,34.70
2022-12-26T03:36:20.977Z,36.47
2022-12-26T03:39:10.427Z,45.10
2022-12-26T03:42:02.999Z,41.38
2022-12-26T03:45:09.594Z,40.20
2022-12-26T03:48:03.922Z,42.00
2022-12-26T03:50:53.726Z,42.45
2022-12-26T03:53:42.503Z,43.13
2022-12-26T03:56:38.499Z,55.13
2022-12-26T03:59:27.470Z,47.38
2022-12-26T04:02:14.665Z,43.00
2022-12-26T04:05:02.835Z,43.15
2022-12-26T04:07:56.782Z,39.67
2022-12-26T04:11:02.382Z,42.33
2022-12-26T04:14:10.992Z,45.55
2022-12-26T04:17:08.118Z,41.13
2022-12-26T04:20:01.308Z,38.75
2022-12-26T04:23:06.471Z,38.50
2022-12-26T04:26:16.816Z,50.05
2022-12-26T04:29:02.329Z,40.45
2022-12-26T04:31:57.208Z,38.25
2022-12-26T04:34:51.126Z,43.17
2022-12-26T04:37:42.897Z,38.13
2022-12-26T04:40:33.200Z,35.33
2022-12-26T04:43:49.319Z,40.72
2022-12-26T04:46:06.058Z,35.95
2022-12-26T04:48:52.303Z,39.38
2022-12-26T04:51:18.986Z,39.75
2022-12-26T04:53:46.519Z,40.45
2022-12-26T04:56:14.097Z,41.05
2022-12-26T04:58:40.721Z,45.13
2022-12-26T05:01:26.252Z,44.30
2022-12-26T05:04:11.633Z,43.38
2022-12-26T05:06:56.884Z,46.35
2022-12-26T05:09:35.812Z,37.42
2022-12-26T05:12:04.975Z,44.05
2022-12-26T05:14:32.104Z,44.88
2022-12-26T05:17:18.180Z,44.95
2022-12-26T05:20:03.937Z,46.63
2022-12-26T05:22:51.383Z,44.85
2022-12-26T05:25:39.719Z,54.60
2022-12-26T05:28:28.826Z,41.58
2022-12-26T05:30:55.621Z,42.38
2022-12-26T05:33:40.875Z,41.35
2022-12-26T05:36:08.727Z,43.22
2022-12-26T05:38:36.273Z,42.42
2022-12-26T05:41:03.489Z,46.83
2022-12-26T05:43:30.289Z,47.47
2022-12-26T05:45:56.981Z,47.55
2022-12-26T05:48:23.721Z,47.33
2022-12-26T05:50:50.408Z,50.28
2022-12-26T05:53:17.100Z,49.88
2022-12-26T05:55:43.915Z,45.53
2022-12-26T05:58:10.635Z,55.65
2022-12-26T06:00:37.326Z,50.35
2022-12-26T06:03:04.276Z,46.72
2022-12-26T06:05:31.034Z,43.65
2022-12-26T06:07:57.740Z,40.20
2022-12-26T06:10:27.115Z,41.78
2022-12-26T06:12:53.815Z,36.35
2022-12-26T06:15:20.483Z,42.90
2022-12-26T06:17:47.216Z,42.92
2022-12-26T06:20:13.902Z,35.90
2022-12-26T06:22:40.634Z,40.47
2022-12-26T06:25:08.025Z,37.28
2022-12-26T06:27:34.720Z,48.40
2022-12-26T06:30:01.472Z,39.28
2022-12-26T06:32:28.237Z,37.67
2022-12-26T06:34:54.991Z,37.30
2022-12-26T06:37:21.820Z,39.85
2022-12-26T06:39:48.453Z,37.90
2022-12-26T06:42:15.139Z,40.63
2022-12-26T06:44:41.954Z,42.05
2022-12-26T06:47:08.687Z,56.45
2022-12-26T06:49:35.416Z,39.90
2022-12-26T06:52:02.168Z,42.00
2022-12-26T06:54:28.956Z,39.25
2022-12-26T06:56:55.674Z,50.53
2022-12-26T06:59:22.445Z,35.30
2022-12-26T07:01:49.595Z,33.58
2022-12-26T07:04:16.395Z,33.45
2022-12-26T07:06:43.106Z,37.88
2022-12-26T07:09:15.142Z,31.45
2022-12-26T07:11:44.007Z,32.95
2022-12-26T07:14:10.897Z,29.20
2022-12-26T07:16:39.198Z,30.10
2022-12-26T07:19:06.553Z,27.15
2022-12-26T07:21:40.186Z,26.40
2022-12-26T07:24:10.473Z,31.17
2022-12-26T07:26:37.217Z,23.80
2022-12-26T07:29:03.908Z,40.95
2022-12-26T07:31:30.895Z,39.63
2022-12-26T07:33:57.668Z,57.15
2022-12-26T07:36:25.341Z,80.22
2022-12-26T07:38:52.497Z,95.55
2022-12-26T07:41:38.532Z,97.20
2022-12-26T07:44:06.230Z,107.97
2022-12-26T07:46:33.741Z,114.78
2022-12-26T07:49:00.475Z,119.50
2022-12-26T07:51:27.703Z,115.07
2022-12-26T07:53:54.473Z,140.95
2022-12-26T07:56:21.205Z,123.68
2022-12-26T07:58:51.587Z,130.10
2022-12-26T08:01:19.110Z,117.85
2022-12-26T08:03:48.883Z,119.22
2022-12-26T08:06:16.184Z,129.82
2022-12-26T08:08:48.463Z,129.63
2022-12-26T08:11:19.263Z,124.93
2022-12-26T08:13:46.415Z,109.45
2022-12-26T08:16:14.919Z,110.57
2022-12-26T08:18:42.070Z,123.50
2022-12-26T08:21:09.118Z,77.70
2022-12-26T08:23:35.861Z,87.65
2022-12-26T08:26:10.997Z,75.35
2022-12-26T08:28:38.516Z,80.45
2022-12-26T08:31:07.236Z,86.53
2022-12-26T08:33:34.246Z,81.30
2022-12-26T08:36:08.681Z,90.22
2022-12-26T08:38:35.769Z,95.22
2022-12-26T08:41:02.724Z,107.90
2022-12-26T08:43:52.792Z,108.72
2022-12-26T08:46:17.061Z,309.60
2022-12-26T08:48:44.328Z,104.95
2022-12-26T08:51:19.360Z,102.88
2022-12-26T08:53:46.897Z,97.50
2022-12-26T08:56:16.570Z,106.28
2022-12-26T08:58:43.958Z,82.93
2022-12-26T09:01:19.886Z,79.32
2022-12-26T09:03:47.764Z,83.80
2022-12-26T09:06:15.914Z,86.00
2022-12-26T09:08:43.205Z,82.47
2022-12-26T09:11:12.451Z,71.95
2022-12-26T09:16:17.074Z,72.78
2022-12-26T09:18:44.727Z,70.55
2022-12-26T09:21:12.890Z,75.22
2022-12-26T09:23:40.564Z,58.90
2022-12-26T09:26:12.117Z,61.08
2022-12-26T09:28:39.291Z,54.05
2022-12-26T09:31:10.822Z,49.55
2022-12-26T09:33:38.627Z,42.30
2022-12-26T09:36:14.513Z,56.25
2022-12-26T09:38:42.946Z,34.47
2022-12-26T09:41:37.375Z,38.53
2022-12-26T09:44:17.867Z,30.38
2022-12-26T09:47:08.485Z,24.23
2022-12-26T09:49:38.819Z,24.45
2022-12-26T09:52:11.981Z,26.58
2022-12-26T09:54:45.468Z,19.88
2022-12-26T09:57:20.574Z,19.92
2022-12-26T09:59:54.814Z,20.08
2022-12-26T10:02:24.090Z,24.48
2022-12-26T10:04:52.004Z,19.30
2022-12-26T10:07:21.341Z,21.02
2022-12-26T10:10:04.273Z,21.23
2022-12-26T10:12:42.554Z,21.08
2022-12-26T10:15:36.934Z,19.52
2022-12-26T10:18:29.716Z,21.17
2022-12-26T10:20:59.401Z,25.95
2022-12-26T10:23:39.739Z,30.42
2022-12-26T10:26:30.846Z,24.83
2022-12-26T10:29:09.661Z,27.23
2022-12-26T10:31:50.879Z,26.88
2022-12-26T10:34:20.520Z,20.45
2022-12-26T10:36:52.437Z,15.52
2022-12-26T10:39:57.765Z,13.68
2022-12-26T10:42:31.455Z,11.55
2022-12-26T10:44:58.684Z,13.35
2022-12-26T10:47:29.822Z,12.38
2022-12-26T10:50:00.012Z,10.52
2022-12-26T10:52:46.207Z,12.35
2022-12-26T10:55:28.942Z,13.80
2022-12-26T10:58:00.574Z,14.68
2022-12-26T11:00:28.610Z,10.50
2022-12-26T11:03:15.576Z,11.23
2022-12-26T11:06:08.137Z,14.40
2022-12-26T11:08:44.304Z,10.82
2022-12-26T11:13:51.501Z,11.25
2022-12-26T11:16:29.635Z,10.60
2022-12-26T11:18:56.817Z,13.30
2022-12-26T11:21:29.054Z,15.98
2022-12-26T11:24:19.519Z,9.30
2022-12-26T11:26:46.624Z,8.65
2022-12-26T11:29:21.814Z,9.98
2022-12-26T11:31:58.208Z,10.02
2022-12-26T11:34:38.259Z,10.02
2022-12-26T11:37:06.070Z,12.05
2022-12-26T11:39:37.528Z,12.48
2022-12-26T11:42:22.132Z,10.80
2022-12-26T11:44:52.679Z,9.38
2022-12-26T11:47:25.814Z,11.52
2022-12-26T11:50:07.593Z,8.18
2022-12-26T11:52:37.424Z,11.18
2022-12-26T11:55:25.134Z,10.13
2022-12-26T11:58:10.102Z,9.43
2022-12-26T12:00:40.840Z,9.10
2022-12-26T12:03:17.788Z,7.57
2022-12-26T12:06:11.794Z,8.75
2022-12-26T12:08:41.403Z,7.60
2022-12-26T12:11:29.577Z,10.93
2022-12-26T12:14:15.432Z,7.55
2022-12-26T12:17:13.331Z,7.47
2022-12-26T12:19:47.491Z,9.68
2022-12-26T12:22:36.208Z,10.88
2022-12-26T12:25:30.544Z,45.25
2022-12-26T12:28:00.402Z,16.52
2022-12-26T12:30:51.014Z,11.88
2022-12-26T12:33:24.667Z,9.30
2022-12-26T12:35:57.805Z,10.48
2022-12-26T12:39:03.306Z,9.85
2022-12-26T12:41:52.085Z,13.05
2022-12-26T12:44:19.650Z,10.60
2022-12-26T12:47:05.053Z,11.40
2022-12-26T12:49:42.883Z,10.20
2022-12-26T12:52:31.474Z,19.80
2022-12-26T12:55:07.021Z,19.23
2022-12-26T12:57:52.402Z,15.25
2022-12-26T13:00:21.939Z,13.90
2022-12-26T13:02:59.872Z,10.48
2022-12-26T13:05:36.232Z,11.40
2022-12-26T13:08:08.638Z,19.52
2022-12-26T13:10:38.439Z,11.50
2022-12-26T13:13:25.645Z,14.05
2022-12-26T13:15:58.526Z,12.73
2022-12-26T13:18:29.496Z,14.98
2022-12-26T13:20:59.720Z,16.83
2022-12-26T13:24:06.256Z,13.82
2022-12-26T13:26:39.206Z,17.10
2022-12-26T13:29:29.722Z,22.48
2022-12-26T13:31:58.555Z,15.23
2022-12-26T13:34:25.591Z,16.42
2022-12-26T13:36:57.620Z,16.23
2022-12-26T13:39:27.125Z,15.20
2022-12-26T13:42:41.217Z,12.77
2022-12-26T13:45:42.944Z,17.73
2022-12-26T13:48:12.677Z,15.88
2022-12-26T13:50:49.921Z,16.67
2022-12-26T13:53:25.922Z,16.17
2022-12-26T13:55:58.846Z,14.43
2022-12-26T13:58:34.626Z,18.40
2022-12-26T14:01:21.591Z,20.42
2022-12-26T14:04:09.956Z,15.45
2022-12-26T14:06:55.797Z,17.15
2022-12-26T14:09:37.429Z,19.40
2022-12-26T14:12:19.469Z,18.92
2022-12-26T14:14:54.638Z,19.88
2022-12-26T14:20:35.648Z,18.38
2022-12-26T14:23:29.920Z,16.33
2022-12-26T14:26:13.313Z,20.08
2022-12-26T14:28:58.542Z,18.90
2022-12-26T14:31:47.049Z,42.13
2022-12-26T14:34:25.616Z,24.98
2022-12-26T14:37:15.901Z,20.77
2022-12-26T14:40:07.493Z,21.67
2022-12-26T14:43:12.634Z,20.63
2022-12-26T14:45:53.173Z,17.88
2022-12-26T14:48:19.884Z,20.20
2022-12-26T14:50:48.043Z,21.17
2022-12-26T14:53:20.779Z,31.17
2022-12-26T14:55:54.685Z,22.95
2022-12-26T14:58:21.278Z,29.40
2022-12-26T15:00:48.914Z,35.25
2022-12-26T15:03:18.501Z,29.48
2022-12-26T15:05:47.397Z,40.35
2022-12-26T15:08:34.447Z,29.67
2022-12-26T15:11:13.159Z,26.27
2022-12-26T15:14:06.208Z,20.50
2022-12-26T15:16:39.582Z,22.67
2022-12-26T15:19:44.744Z,21.73
2022-12-26T15:22:53.288Z,23.17
2022-12-26T15:25:25.582Z,25.85
2022-12-26T15:27:59.398Z,25.67
2022-12-26T15:31:05.957Z,23.35
2022-12-26T15:33:41.047Z,29.75
2022-12-26T15:36:20.680Z,33.17
2022-12-26T15:38:58.671Z,29.38
2022-12-26T15:41:50.375Z,36.65
2022-12-26T15:44:16.957Z,32.13
2022-12-26T15:47:02.122Z,32.30
2022-12-26T15:49:48.487Z,40.40
2022-12-26T15:52:33.974Z,32.88
2022-12-26T15:55:20.877Z,40.95
2022-12-26T15:57:53.022Z,29.20
2022-12-26T16:00:24.838Z,37.50
2022-12-26T16:03:16.528Z,34.70
2022-12-26T16:05:51.678Z,37.10
2022-12-26T16:08:49.300Z,46.17
2022-12-26T16:11:20.931Z,46.38
2022-12-26T16:13:55.348Z,44.22
2022-12-26T16:16:32.551Z,49.28
2022-12-26T16:19:15.658Z,51.80
2022-12-26T16:22:03.396Z,47.53
2022-12-26T16:24:30.233Z,36.83
2022-12-26T16:27:02.051Z,44.42
2022-12-26T16:29:30.301Z,39.28
2022-12-26T16:32:07.072Z,35.40
2022-12-26T16:34:36.980Z,30.08
2022-12-26T16:37:03.808Z,35.40
2022-12-26T16:39:30.480Z,45.25
2022-12-26T16:42:06.316Z,36.45
2022-12-26T16:44:37.572Z,33.42
2022-12-26T16:47:12.066Z,25.58
2022-12-26T16:49:41.753Z,31.65
2022-12-26T16:52:45.852Z,29.15
2022-12-26T16:55:30.801Z,31.40
2022-12-26T16:58:00.033Z,25.35
2022-12-26T17:00:27.392Z,30.13
2022-12-26T17:02:58.037Z,25.70
2022-12-26T17:05:30.352Z,29.50
2022-12-26T17:08:00.249Z,24.25
2022-12-26T17:10:33.244Z,23.55
2022-12-26T17:13:03.016Z,26.95
2022-12-26T17:15:37.730Z,29.55
2022-12-26T17:18:29.130Z,25.77
2022-12-26T17:20:56.348Z,32.60
2022-12-26T17:23:36.263Z,27.20
2022-12-26T17:26:21.169Z,28.80
2022-12-26T17:28:47.979Z,26.50
2022-12-26T17:31:34.451Z,26.35
2022-12-26T17:34:05.508Z,27.13
2022-12-26T17:39:20.965Z,22.50
2022-12-26T17:42:01.126Z,27.17
2022-12-26T17:44:35.968Z,26.23
2022-12-26T17:47:11.186Z,22.30
2022-12-26T17:49:37.855Z,26.10
2022-12-26T17:52:04.878Z,29.52
2022-12-26T17:54:31.602Z,25.63
2022-12-26T17:56:58.453Z,24.73
2022-12-26T17:59:25.142Z,24.65
2022-12-26T18:01:51.902Z,23.98
2022-12-26T18:04:18.719Z,29.88
2022-12-26T18:06:45.362Z,23.80
2022-12-26T18:09:24.555Z,27.15
2022-12-26T18:11:51.306Z,30.35
2022-12-26T18:14:18.099Z,24.80
2022-12-26T18:16:45.001Z,30.27
2022-12-26T18:19:16.408Z,25.95
2022-12-26T18:21:43.170Z,44.40
2022-12-26T18:24:09.879Z,27.55
2022-12-26T18:26:36.971Z,33.08
2022-12-26T18:29:04.013Z,33.55
2022-12-26T18:31:31.642Z,38.75
2022-12-26T18:33:58.404Z,33.25
2022-12-26T18:36:30.592Z,32.75
2022-12-26T18:38:57.369Z,30.42
2022-12-26T18:41:24.112Z,37.90
2022-12-26T18:43:50.844Z,33.55
2022-12-26T18:46:17.966Z,29.65
2022-12-26T18:48:45.207Z,29.67
2022-12-26T18:51:12.435Z,22.85
2022-12-26T18:53:39.310Z,32.35
2022-12-26T18:56:06.523Z,34.63
2022-12-26T18:58:33.250Z,38.70
2022-12-26T19:01:02.909Z,38.42
2022-12-26T19:03:29.752Z,33.63
2022-12-26T19:05:56.486Z,37.00
2022-12-26T19:08:23.149Z,45.65
2022-12-26T19:10:49.826Z,38.50
2022-12-26T19:13:16.555Z,37.17
2022-12-26T19:15:47.345Z,45.33
2022-12-26T19:18:14.086Z,34.58
2022-12-26T19:20:44.378Z,39.10
2022-12-26T19:23:11.658Z,34.72
2022-12-26T19:25:38.367Z,35.47
2022-12-26T19:28:05.118Z,45.80
2022-12-26T19:30:38.251Z,47.35
2022-12-26T19:33:05.632Z,48.92
2022-12-26T19:35:32.353Z,42.70
2022-12-26T19:37:59.314Z,38.67
2022-12-26T19:40:26.283Z,42.67
2022-12-26T19:42:53.472Z,46.20
2022-12-26T19:45:20.385Z,43.63
2022-12-26T19:47:47.126Z,37.15
2022-12-26T19:50:14.126Z,38.38
2022-12-26T19:52:41.429Z,37.67
2022-12-26T19:55:11.472Z,32.45
2022-12-26T19:57:38.200Z,36.67
2022-12-26T20:00:06.359Z,38.42
2022-12-26T20:02:33.138Z,37.20
2022-12-26T20:04:59.919Z,69.45
2022-12-26T20:07:26.605Z,56.97
2022-12-26T20:09:53.353Z,40.72
2022-12-26T20:12:20.181Z,40.00
2022-12-26T20:14:46.853Z,42.30
2022-12-26T20:17:13.714Z,48.42
2022-12-26T20:19:40.722Z,42.00
2022-12-26T20:22:07.964Z,47.17
2022-12-26T20:24:35.041Z,53.90
2022-12-26T20:27:02.735Z,56.92
2022-12-26T20:29:32.873Z,74.93
2022-12-26T20:31:59.755Z,71.97
2022-12-26T20:34:26.666Z,75.93
2022-12-26T20:36:53.634Z,75.30
2022-12-26T20:39:21.562Z,90.35
2022-12-26T20:41:48.711Z,75.90
2022-12-26T20:44:16.675Z,74.82
2022-12-26T20:46:44.451Z,78.40
2022-12-26T20:49:11.905Z,73.32
2022-12-26T20:51:40.246Z,73.85
2022-12-26T20:54:08.356Z,75.90
2022-12-26T20:56:35.801Z,77.35
2022-12-26T20:59:03.404Z,76.20
2022-12-26T21:01:30.627Z,73.13
2022-12-26T21:03:58.042Z,76.07
2022-12-26T21:06:36.061Z,73.82
2022-12-26T21:09:04.112Z,65.72
2022-12-26T21:11:33.263Z,62.08
2022-12-26T21:14:02.990Z,76.07
2022-12-26T21:16:35.617Z,70.07
2022-12-26T21:19:03.320Z,67.38
2022-12-26T21:21:35.909Z,65.65
2022-12-26T21:24:10.661Z,69.60
2022-12-26T21:26:39.096Z,69.60
2022-12-26T21:29:07.773Z,71.63
2022-12-26T21:31:35.270Z,57.58
2022-12-26T21:34:03.517Z,61.55
2022-12-26T21:36:30.511Z,61.97
2022-12-26T21:38:58.060Z,56.72
2022-12-26T21:41:25.571Z,52.13
2022-12-26T21:43:55.775Z,56.92
2022-12-26T21:46:22.572Z,54.00
2022-12-26T21:48:50.277Z,54.00
2022-12-26T21:51:18.427Z,52.10
2022-12-26T21:53:45.286Z,56.97
2022-12-26T21:56:13.227Z,62.53
2022-12-26T21:58:59.301Z,64.32
2022-12-26T22:01:27.127Z,60.38
2022-12-26T22:04:12.967Z,65.13
2022-12-26T22:06:40.502Z,58.83
2022-12-26T22:09:08.448Z,63.55
2022-12-26T22:11:54.054Z,55.55
2022-12-26T22:14:21.269Z,60.42
2022-12-26T22:16:52.050Z,65.40
2022-12-26T22:19:19.778Z,61.20
2022-12-26T22:21:46.805Z,68.85
2022-12-26T22:24:15.021Z,76.47
2022-12-26T22:26:41.923Z,63.03
2022-12-26T22:29:08.956Z,61.65
2022-12-26T22:31:37.322Z,67.80
2022-12-26T22:34:06.913Z,70.72
2022-12-26T22:39:03.344Z,61.58
2022-12-26T22:41:30.088Z,63.28
2022-12-26T22:43:56.945Z,67.57
2022-12-26T22:46:23.999Z,74.03
2022-12-26T22:48:51.159Z,74.70
2022-12-26T22:51:20.407Z,66.50
2022-12-26T22:53:47.421Z,67.07
2022-12-26T22:56:14.132Z,67.45
2022-12-26T22:58:43.165Z,62.75
2022-12-26T23:01:17.746Z,62.22
2022-12-26T23:03:44.689Z,62.13
2022-12-26T23:06:30.167Z,68.00
2022-12-26T23:08:58.472Z,71.72
2022-12-26T23:11:34.102Z,66.30
2022-12-26T23:14:02.243Z,71.55
2022-12-26T23:16:45.590Z,70.35
2022-12-26T23:19:34.945Z,76.88
2022-12-26T23:22:02.403Z,68.05
2022-12-26T23:24:30.678Z,71.78
2022-12-26T23:27:26.503Z,64.80
2022-12-26T23:30:12.723Z,60.25
2022-12-26T23:32:41.155Z,59.35
2022-12-26T23:35:09.631Z,55.63
2022-12-26T23:37:37.363Z,57.25
2022-12-26T23:40:05.013Z,48.30
2022-12-26T23:42:31.749Z,49.38
2022-12-26T23:44:58.415Z,49.30
2022-12-26T23:47:25.095Z,48.42
2022-12-26T23:49:51.779Z,46.38
2022-12-26T23:52:19.776Z,45.42
2022-12-26T23:54:46.493Z,48.92
2022-12-26T23:57:13.334Z,43.25
2022-12-26T23:59:39.990Z,41.83
